sensor_id;sensor_type;location;lat;lon;timestamp;pressure;altitude;pressure_sealevel;temperature;humidity
30598;BME280;17365;48.878;8.334;2024-02-28T00:00:33;100162.56;;;7.72;100.00
30598;BME280;17365;48.878;8.334;2024-02-28T00:02:58;100163.56;;;7.83;100.00
30598;BME280;17365;48.878;8.334;2024-02-28T00:05:23;100169.84;;;7.41;100.00
30598;BME280;17365;48.878;8.334;2024-02-28T00:07:49;100163.81;;;7.42;100.00
30598;BME280;17365;48.878;8.334;2024-02-28T00:10:14;100166.72;;;7.64;100.00
30598;BME280;17365;48.878;8.334;2024-02-28T00:12:39;100171.50;;;7.38;100.00
30598;BME280;17365;48.878;8.334;2024-02-28T00:15:06;100186.63;;;7.15;100.00
30598;BME280;17365;48.878;8.334;2024-02-28T00:17:38;100179.47;;;7.00;100.00
30598;BME280;17365;48.878;8.334;2024-02-28T00:20:03;100185.69;;;7.11;100.00
30598;BME280;17365;48.878;8.334;2024-02-28T00:22:29;100183.25;;;7.20;100.00
30598;BME280;17365;48.878;8.334;2024-02-28T00:24:54;100186.00;;;7.31;100.00
30598;BME280;17365;48.878;8.334;2024-02-28T00:27:19;100188.91;;;6.99;100.00
30598;BME280;17365;48.878;8.334;2024-02-28T00:29:44;100200.00;;;6.92;100.00
30598;BME280;17365;48.878;8.334;2024-02-28T00:32:11;100193.53;;;7.17;100.00
30598;BME280;17365;48.878;8.334;2024-02-28T00:34:36;100195.31;;;7.21;100.00
30598;BME280;17365;48.878;8.334;2024-02-28T00:37:01;100198.22;;;7.41;100.00
30598;BME280;17365;48.878;8.334;2024-02-28T00:39:26;100187.06;;;7.42;100.00
30598;BME280;17365;48.878;8.334;2024-02-28T00:41:52;100187.19;;;7.50;100.00
30598;BME280;17365;48.878;8.334;2024-02-28T00:44:17;100193.06;;;7.41;100.00
30598;BME280;17365;48.878;8.334;2024-02-28T00:46:43;100198.78;;;7.23;100.00
30598;BME280;17365;48.878;8.334;2024-02-28T00:49:08;100202.97;;;7.15;100.00
30598;BME280;17365;48.878;8.334;2024-02-28T00:51:33;100199.88;;;7.36;100.00
30598;BME280;17365;48.878;8.334;2024-02-28T00:54:01;100205.84;;;7.35;100.00
30598;BME280;17365;48.878;8.334;2024-02-28T00:56:26;100205.13;;;7.42;100.00
30598;BME280;17365;48.878;8.334;2024-02-28T00:58:52;100205.31;;;7.56;100.00
30598;BME280;17365;48.878;8.334;2024-02-28T01:01:17;100206.97;;;7.51;100.00
30598;BME280;17365;48.878;8.334;2024-02-28T01:03:43;100207.88;;;7.54;100.00
30598;BME280;17365;48.878;8.334;2024-02-28T01:06:08;100206.13;;;7.50;100.00
30598;BME280;17365;48.878;8.334;2024-02-28T01:08:33;100212.00;;;7.43;100.00
30598;BME280;17365;48.878;8.334;2024-02-28T01:10:59;100210.41;;;7.50;100.00
30598;BME280;17365;48.878;8.334;2024-02-28T01:13:24;100212.88;;;7.44;100.00
30598;BME280;17365;48.878;8.334;2024-02-28T01:15:49;100199.44;;;7.12;100.00
30598;BME280;17365;48.878;8.334;2024-02-28T01:18:15;100207.28;;;7.16;100.00
30598;BME280;17365;48.878;8.334;2024-02-28T01:20:40;100214.19;;;7.19;100.00
30598;BME280;17365;48.878;8.334;2024-02-28T01:23:05;100210.50;;;7.05;100.00
30598;BME280;17365;48.878;8.334;2024-02-28T01:25:30;100209.66;;;7.04;100.00
30598;BME280;17365;48.878;8.334;2024-02-28T01:27:56;100210.94;;;6.81;100.00
30598;BME280;17365;48.878;8.334;2024-02-28T01:30:25;100206.66;;;6.81;100.00
30598;BME280;17365;48.878;8.334;2024-02-28T01:32:50;100213.38;;;6.73;100.00
30598;BME280;17365;48.878;8.334;2024-02-28T01:35:16;100210.53;;;6.59;100.00
30598;BME280;17365;48.878;8.334;2024-02-28T01:37:41;100204.56;;;6.62;100.00
30598;BME280;17365;48.878;8.334;2024-02-28T01:40:07;100207.97;;;6.59;100.00
30598;BME280;17365;48.878;8.334;2024-02-28T01:42:34;100202.78;;;6.58;100.00
30598;BME280;17365;48.878;8.334;2024-02-28T01:44:59;100202.94;;;6.67;100.00
30598;BME280;17365;48.878;8.334;2024-02-28T01:47:24;100206.34;;;6.66;100.00
30598;BME280;17365;48.878;8.334;2024-02-28T01:49:50;100208.66;;;6.52;100.00
30598;BME280;17365;48.878;8.334;2024-02-28T01:52:16;100204.59;;;6.63;100.00
30598;BME280;17365;48.878;8.334;2024-02-28T01:54:42;100203.78;;;6.66;100.00
30598;BME280;17365;48.878;8.334;2024-02-28T01:57:08;100214.09;;;6.66;100.00
30598;BME280;17365;48.878;8.334;2024-02-28T01:59:34;100220.75;;;6.56;100.00
30598;BME280;17365;48.878;8.334;2024-02-28T02:02:00;100215.66;;;6.58;100.00
30598;BME280;17365;48.878;8.334;2024-02-28T02:04:25;100225.06;;;6.56;100.00
30598;BME280;17365;48.878;8.334;2024-02-28T02:06:51;100226.84;;;6.58;100.00
30598;BME280;17365;48.878;8.334;2024-02-28T02:09:19;100239.81;;;6.22;100.00
30598;BME280;17365;48.878;8.334;2024-02-28T02:11:44;100235.97;;;6.42;100.00
30598;BME280;17365;48.878;8.334;2024-02-28T02:14:10;100243.38;;;6.27;100.00
30598;BME280;17365;48.878;8.334;2024-02-28T02:16:35;100240.28;;;6.45;100.00
30598;BME280;17365;48.878;8.334;2024-02-28T02:19:00;100245.41;;;6.42;100.00
30598;BME280;17365;48.878;8.334;2024-02-28T02:21:34;100247.88;;;6.36;100.00
30598;BME280;17365;48.878;8.334;2024-02-28T02:24:02;100244.47;;;6.38;100.00
30598;BME280;17365;48.878;8.334;2024-02-28T02:26:27;100252.00;;;6.29;100.00
30598;BME280;17365;48.878;8.334;2024-02-28T02:28:53;100246.63;;;6.19;100.00
30598;BME280;17365;48.878;8.334;2024-02-28T02:31:18;100256.91;;;6.17;100.00
30598;BME280;17365;48.878;8.334;2024-02-28T02:33:43;100257.16;;;5.90;100.00
30598;BME280;17365;48.878;8.334;2024-02-28T02:36:09;100260.69;;;5.95;100.00
30598;BME280;17365;48.878;8.334;2024-02-28T02:38:35;100268.34;;;5.91;100.00
30598;BME280;17365;48.878;8.334;2024-02-28T02:41:00;100272.47;;;5.87;100.00
30598;BME280;17365;48.878;8.334;2024-02-28T02:43:25;100272.28;;;5.78;100.00
30598;BME280;17365;48.878;8.334;2024-02-28T02:45:50;100271.53;;;5.82;100.00
30598;BME280;17365;48.878;8.334;2024-02-28T02:48:16;100278.13;;;5.71;100.00
30598;BME280;17365;48.878;8.334;2024-02-28T02:50:41;100273.81;;;5.70;100.00
30598;BME280;17365;48.878;8.334;2024-02-28T02:53:10;100290.00;;;5.66;100.00
30598;BME280;17365;48.878;8.334;2024-02-28T02:55:35;100297.66;;;5.63;100.00
30598;BME280;17365;48.878;8.334;2024-02-28T02:58:01;100299.97;;;5.53;100.00
30598;BME280;17365;48.878;8.334;2024-02-28T03:00:27;100306.41;;;5.69;100.00
30598;BME280;17365;48.878;8.334;2024-02-28T03:02:53;100309.84;;;5.70;100.00
30598;BME280;17365;48.878;8.334;2024-02-28T03:05:18;100316.56;;;5.65;100.00
30598;BME280;17365;48.878;8.334;2024-02-28T03:07:43;100321.13;;;5.76;100.00
30598;BME280;17365;48.878;8.334;2024-02-28T03:10:08;100316.16;;;5.82;100.00
30598;BME280;17365;48.878;8.334;2024-02-28T03:12:35;100330.50;;;5.73;100.00
30598;BME280;17365;48.878;8.334;2024-02-28T03:15:00;100322.81;;;5.74;100.00
30598;BME280;17365;48.878;8.334;2024-02-28T03:17:26;100302.25;;;5.76;100.00
30598;BME280;17365;48.878;8.334;2024-02-28T03:19:51;100305.09;;;5.52;100.00
30598;BME280;17365;48.878;8.334;2024-02-28T03:22:16;100306.38;;;5.68;100.00
30598;BME280;17365;48.878;8.334;2024-02-28T03:24:42;100311.81;;;5.80;100.00
30598;BME280;17365;48.878;8.334;2024-02-28T03:27:07;100314.44;;;5.83;100.00
30598;BME280;17365;48.878;8.334;2024-02-28T03:29:33;100315.25;;;5.80;100.00
30598;BME280;17365;48.878;8.334;2024-02-28T03:31:58;100313.19;;;6.00;100.00
30598;BME280;17365;48.878;8.334;2024-02-28T03:34:24;100315.56;;;5.93;100.00
30598;BME280;17365;48.878;8.334;2024-02-28T03:36:50;100318.38;;;6.02;100.00
30598;BME280;17365;48.878;8.334;2024-02-28T03:39:15;100318.16;;;5.93;100.00
30598;BME280;17365;48.878;8.334;2024-02-28T03:41:40;100316.78;;;5.74;100.00
30598;BME280;17365;48.878;8.334;2024-02-28T03:44:06;100322.00;;;5.77;100.00
30598;BME280;17365;48.878;8.334;2024-02-28T03:46:31;100328.63;;;6.00;100.00
30598;BME280;17365;48.878;8.334;2024-02-28T03:48:56;100321.13;;;6.11;100.00
30598;BME280;17365;48.878;8.334;2024-02-28T03:51:22;100323.84;;;6.16;100.00
30598;BME280;17365;48.878;8.334;2024-02-28T03:53:47;100328.78;;;6.08;100.00
30598;BME280;17365;48.878;8.334;2024-02-28T03:56:13;100328.16;;;5.82;100.00
30598;BME280;17365;48.878;8.334;2024-02-28T03:58:40;100333.88;;;6.05;100.00
30598;BME280;17365;48.878;8.334;2024-02-28T04:01:05;100337.00;;;5.92;100.00
30598;BME280;17365;48.878;8.334;2024-02-28T04:03:30;100332.53;;;5.86;100.00
30598;BME280;17365;48.878;8.334;2024-02-28T04:05:55;100334.50;;;5.95;100.00
30598;BME280;17365;48.878;8.334;2024-02-28T04:08:21;100332.13;;;6.02;100.00
30598;BME280;17365;48.878;8.334;2024-02-28T04:10:46;100339.81;;;6.01;100.00
30598;BME280;17365;48.878;8.334;2024-02-28T04:13:11;100342.53;;;6.08;100.00
30598;BME280;17365;48.878;8.334;2024-02-28T04:15:37;100346.88;;;6.11;100.00
30598;BME280;17365;48.878;8.334;2024-02-28T04:18:03;100353.94;;;5.83;100.00
30598;BME280;17365;48.878;8.334;2024-02-28T04:20:28;100356.91;;;5.66;100.00
30598;BME280;17365;48.878;8.334;2024-02-28T04:22:54;100349.72;;;5.87;100.00
30598;BME280;17365;48.878;8.334;2024-02-28T04:25:19;100355.34;;;6.05;100.00
30598;BME280;17365;48.878;8.334;2024-02-28T04:27:44;100358.75;;;6.03;100.00
30598;BME280;17365;48.878;8.334;2024-02-28T04:30:11;100373.97;;;5.62;100.00
30598;BME280;17365;48.878;8.334;2024-02-28T04:32:37;100370.25;;;5.84;100.00
30598;BME280;17365;48.878;8.334;2024-02-28T04:35:03;100368.69;;;5.89;100.00
30598;BME280;17365;48.878;8.334;2024-02-28T04:37:28;100374.78;;;5.93;100.00
30598;BME280;17365;48.878;8.334;2024-02-28T04:39:54;100372.41;;;6.00;100.00
30598;BME280;17365;48.878;8.334;2024-02-28T04:42:19;100384.63;;;6.09;100.00
30598;BME280;17365;48.878;8.334;2024-02-28T04:44:45;100386.94;;;5.98;100.00
30598;BME280;17365;48.878;8.334;2024-02-28T04:47:10;100388.94;;;6.10;100.00
30598;BME280;17365;48.878;8.334;2024-02-28T04:49:38;100388.41;;;6.23;100.00
30598;BME280;17365;48.878;8.334;2024-02-28T04:52:05;100388.53;;;6.29;100.00
30598;BME280;17365;48.878;8.334;2024-02-28T04:54:31;100385.75;;;6.20;100.00
30598;BME280;17365;48.878;8.334;2024-02-28T04:56:56;100398.75;;;6.25;100.00
30598;BME280;17365;48.878;8.334;2024-02-28T04:59:22;100407.72;;;6.06;100.00
30598;BME280;17365;48.878;8.334;2024-02-28T05:01:47;100412.41;;;6.22;100.00
30598;BME280;17365;48.878;8.334;2024-02-28T05:04:13;100409.94;;;6.25;100.00
30598;BME280;17365;48.878;8.334;2024-02-28T05:06:39;100397.94;;;6.27;100.00
30598;BME280;17365;48.878;8.334;2024-02-28T05:09:04;100403.94;;;6.26;100.00
30598;BME280;17365;48.878;8.334;2024-02-28T05:11:29;100400.16;;;6.12;100.00
30598;BME280;17365;48.878;8.334;2024-02-28T05:13:55;100412.88;;;6.06;100.00
30598;BME280;17365;48.878;8.334;2024-02-28T05:16:20;100414.31;;;5.95;100.00
30598;BME280;17365;48.878;8.334;2024-02-28T05:18:45;100420.63;;;6.07;100.00
30598;BME280;17365;48.878;8.334;2024-02-28T05:21:11;100412.16;;;6.11;100.00
30598;BME280;17365;48.878;8.334;2024-02-28T05:23:36;100404.63;;;6.19;100.00
30598;BME280;17365;48.878;8.334;2024-02-28T05:26:02;100417.13;;;6.04;100.00
30598;BME280;17365;48.878;8.334;2024-02-28T05:28:35;100407.84;;;6.10;100.00
30598;BME280;17365;48.878;8.334;2024-02-28T05:31:02;100404.38;;;6.10;100.00
30598;BME280;17365;48.878;8.334;2024-02-28T05:33:33;100402.88;;;5.85;100.00
30598;BME280;17365;48.878;8.334;2024-02-28T05:35:58;100397.78;;;5.88;100.00
30598;BME280;17365;48.878;8.334;2024-02-28T05:38:24;100404.06;;;5.96;100.00
30598;BME280;17365;48.878;8.334;2024-02-28T05:40:49;100405.75;;;5.96;100.00
30598;BME280;17365;48.878;8.334;2024-02-28T05:43:15;100398.66;;;5.89;100.00
30598;BME280;17365;48.878;8.334;2024-02-28T05:45:40;100395.22;;;5.88;100.00
30598;BME280;17365;48.878;8.334;2024-02-28T05:48:06;100406.94;;;5.77;100.00
30598;BME280;17365;48.878;8.334;2024-02-28T05:50:31;100412.94;;;5.76;100.00
30598;BME280;17365;48.878;8.334;2024-02-28T05:52:58;100413.06;;;5.80;100.00
30598;BME280;17365;48.878;8.334;2024-02-28T05:55:23;100413.16;;;5.52;100.00
30598;BME280;17365;48.878;8.334;2024-02-28T05:57:49;100419.69;;;5.71;100.00
30598;BME280;17365;48.878;8.334;2024-02-28T06:00:14;100419.00;;;5.45;100.00
30598;BME280;17365;48.878;8.334;2024-02-28T06:02:40;100423.88;;;5.67;100.00
30598;BME280;17365;48.878;8.334;2024-02-28T06:05:06;100433.38;;;5.70;100.00
30598;BME280;17365;48.878;8.334;2024-02-28T06:07:31;100431.94;;;5.79;100.00
30598;BME280;17365;48.878;8.334;2024-02-28T06:09:56;100425.75;;;5.74;100.00
30598;BME280;17365;48.878;8.334;2024-02-28T06:12:22;100426.34;;;5.64;100.00
30598;BME280;17365;48.878;8.334;2024-02-28T06:14:47;100425.22;;;5.54;100.00
30598;BME280;17365;48.878;8.334;2024-02-28T06:17:13;100428.50;;;5.47;100.00
30598;BME280;17365;48.878;8.334;2024-02-28T06:19:38;100429.06;;;5.37;100.00
30598;BME280;17365;48.878;8.334;2024-02-28T06:22:03;100434.22;;;5.37;100.00
30598;BME280;17365;48.878;8.334;2024-02-28T06:24:29;100449.34;;;5.26;100.00
30598;BME280;17365;48.878;8.334;2024-02-28T06:26:54;100441.59;;;5.25;100.00
30598;BME280;17365;48.878;8.334;2024-02-28T06:29:20;100449.91;;;5.16;100.00
30598;BME280;17365;48.878;8.334;2024-02-28T06:31:51;100446.50;;;5.17;100.00
30598;BME280;17365;48.878;8.334;2024-02-28T06:34:16;100453.22;;;5.12;100.00
30598;BME280;17365;48.878;8.334;2024-02-28T06:36:42;100460.94;;;5.12;100.00
30598;BME280;17365;48.878;8.334;2024-02-28T06:39:07;100465.38;;;5.18;100.00
30598;BME280;17365;48.878;8.334;2024-02-28T06:41:32;100466.16;;;5.15;100.00
30598;BME280;17365;48.878;8.334;2024-02-28T06:43:58;100472.09;;;5.13;100.00
30598;BME280;17365;48.878;8.334;2024-02-28T06:46:24;100473.69;;;5.09;100.00
30598;BME280;17365;48.878;8.334;2024-02-28T06:48:49;100482.06;;;5.02;100.00
30598;BME280;17365;48.878;8.334;2024-02-28T06:51:16;100483.84;;;5.05;100.00
30598;BME280;17365;48.878;8.334;2024-02-28T06:53:42;100493.28;;;5.06;100.00
30598;BME280;17365;48.878;8.334;2024-02-28T06:56:07;100491.13;;;4.91;100.00
30598;BME280;17365;48.878;8.334;2024-02-28T06:58:32;100501.00;;;4.77;100.00
30598;BME280;17365;48.878;8.334;2024-02-28T07:00:58;100502.25;;;4.90;100.00
30598;BME280;17365;48.878;8.334;2024-02-28T07:03:23;100501.75;;;5.02;100.00
30598;BME280;17365;48.878;8.334;2024-02-28T07:05:48;100504.69;;;5.14;100.00
30598;BME280;17365;48.878;8.334;2024-02-28T07:08:13;100512.75;;;4.97;100.00
30598;BME280;17365;48.878;8.334;2024-02-28T07:10:39;100512.44;;;5.15;100.00
30598;BME280;17365;48.878;8.334;2024-02-28T07:13:08;100520.25;;;4.90;100.00
30598;BME280;17365;48.878;8.334;2024-02-28T07:15:35;100522.50;;;5.08;100.00
30598;BME280;17365;48.878;8.334;2024-02-28T07:18:00;100524.56;;;5.19;100.00
30598;BME280;17365;48.878;8.334;2024-02-28T07:20:25;100539.69;;;4.82;100.00
30598;BME280;17365;48.878;8.334;2024-02-28T07:22:50;100533.56;;;5.05;100.00
30598;BME280;17365;48.878;8.334;2024-02-28T07:25:16;100534.75;;;5.16;100.00
30598;BME280;17365;48.878;8.334;2024-02-28T07:27:41;100525.88;;;5.34;100.00
30598;BME280;17365;48.878;8.334;2024-02-28T07:30:07;100527.91;;;5.45;100.00
30598;BME280;17365;48.878;8.334;2024-02-28T07:32:32;100538.34;;;5.50;100.00
30598;BME280;17365;48.878;8.334;2024-02-28T07:35:00;100541.47;;;5.70;100.00
30598;BME280;17365;48.878;8.334;2024-02-28T07:37:26;100546.16;;;5.54;100.00
30598;BME280;17365;48.878;8.334;2024-02-28T07:39:51;100559.00;;;5.53;100.00
30598;BME280;17365;48.878;8.334;2024-02-28T07:42:16;100555.78;;;5.60;100.00
30598;BME280;17365;48.878;8.334;2024-02-28T07:44:43;100564.75;;;5.16;100.00
30598;BME280;17365;48.878;8.334;2024-02-28T07:47:08;100563.63;;;5.35;100.00
30598;BME280;17365;48.878;8.334;2024-02-28T07:49:33;100571.22;;;5.60;100.00
30598;BME280;17365;48.878;8.334;2024-02-28T07:51:59;100577.09;;;5.28;100.00
30598;BME280;17365;48.878;8.334;2024-02-28T07:54:24;100565.66;;;5.18;100.00
30598;BME280;17365;48.878;8.334;2024-02-28T07:56:50;100559.72;;;5.47;100.00
30598;BME280;17365;48.878;8.334;2024-02-28T07:59:15;100562.63;;;5.60;100.00
30598;BME280;17365;48.878;8.334;2024-02-28T08:01:40;100553.91;;;5.84;100.00
30598;BME280;17365;48.878;8.334;2024-02-28T08:04:06;100562.56;;;6.18;100.00
30598;BME280;17365;48.878;8.334;2024-02-28T08:06:31;100563.94;;;6.37;100.00
30598;BME280;17365;48.878;8.334;2024-02-28T08:08:58;100550.25;;;6.39;100.00
30598;BME280;17365;48.878;8.334;2024-02-28T08:11:23;100548.63;;;6.10;100.00
30598;BME280;17365;48.878;8.334;2024-02-28T08:13:50;100549.44;;;6.09;100.00
30598;BME280;17365;48.878;8.334;2024-02-28T08:16:15;100556.31;;;6.08;100.00
30598;BME280;17365;48.878;8.334;2024-02-28T08:18:41;100560.31;;;6.30;100.00
30598;BME280;17365;48.878;8.334;2024-02-28T08:21:06;100567.78;;;6.53;100.00
30598;BME280;17365;48.878;8.334;2024-02-28T08:23:31;100572.03;;;6.51;100.00
30598;BME280;17365;48.878;8.334;2024-02-28T08:25:57;100572.78;;;6.47;100.00
30598;BME280;17365;48.878;8.334;2024-02-28T08:28:22;100572.03;;;6.85;100.00
30598;BME280;17365;48.878;8.334;2024-02-28T08:30:48;100571.38;;;6.59;100.00
30598;BME280;17365;48.878;8.334;2024-02-28T08:33:13;100571.97;;;6.16;100.00
30598;BME280;17365;48.878;8.334;2024-02-28T08:35:38;100571.81;;;6.11;100.00
30598;BME280;17365;48.878;8.334;2024-02-28T08:38:04;100567.50;;;6.42;100.00
30598;BME280;17365;48.878;8.334;2024-02-28T08:40:29;100564.38;;;6.55;100.00
30598;BME280;17365;48.878;8.334;2024-02-28T08:42:55;100572.19;;;6.24;100.00
30598;BME280;17365;48.878;8.334;2024-02-28T08:45:22;100574.38;;;6.76;100.00
30598;BME280;17365;48.878;8.334;2024-02-28T08:47:48;100571.91;;;6.81;100.00
30598;BME280;17365;48.878;8.334;2024-02-28T08:50:13;100565.00;;;7.16;100.00
30598;BME280;17365;48.878;8.334;2024-02-28T08:52:38;100565.00;;;7.16;100.00
30598;BME280;17365;48.878;8.334;2024-02-28T08:55:04;100563.31;;;7.16;100.00
30598;BME280;17365;48.878;8.334;2024-02-28T08:57:29;100564.75;;;7.05;100.00
30598;BME280;17365;48.878;8.334;2024-02-28T08:59:55;100564.84;;;6.74;100.00
30598;BME280;17365;48.878;8.334;2024-02-28T09:02:20;100567.94;;;6.93;100.00
30598;BME280;17365;48.878;8.334;2024-02-28T09:04:45;100551.78;;;6.66;100.00
30598;BME280;17365;48.878;8.334;2024-02-28T09:07:15;100552.44;;;7.31;100.00
30598;BME280;17365;48.878;8.334;2024-02-28T09:09:44;100552.44;;;7.31;100.00
30598;BME280;17365;48.878;8.334;2024-02-28T09:12:09;100549.78;;;6.56;100.00
30598;BME280;17365;48.878;8.334;2024-02-28T09:14:35;100563.00;;;6.68;100.00
30598;BME280;17365;48.878;8.334;2024-02-28T09:17:00;100561.41;;;6.38;100.00
30598;BME280;17365;48.878;8.334;2024-02-28T09:19:31;100569.47;;;6.52;100.00
30598;BME280;17365;48.878;8.334;2024-02-28T09:21:58;100576.25;;;7.19;100.00
30598;BME280;17365;48.878;8.334;2024-02-28T09:24:24;100577.28;;;7.26;100.00
30598;BME280;17365;48.878;8.334;2024-02-28T09:26:50;100579.19;;;6.97;100.00
30598;BME280;17365;48.878;8.334;2024-02-28T09:29:16;100586.38;;;7.10;100.00
30598;BME280;17365;48.878;8.334;2024-02-28T09:31:41;100575.94;;;6.69;100.00
30598;BME280;17365;48.878;8.334;2024-02-28T09:34:07;100576.84;;;6.71;100.00
30598;BME280;17365;48.878;8.334;2024-02-28T09:36:43;100583.97;;;7.18;100.00
30598;BME280;17365;48.878;8.334;2024-02-28T09:39:11;100577.94;;;7.56;100.00
30598;BME280;17365;48.878;8.334;2024-02-28T09:41:36;100573.97;;;7.71;100.00
30598;BME280;17365;48.878;8.334;2024-02-28T09:44:02;100574.97;;;7.79;100.00
30598;BME280;17365;48.878;8.334;2024-02-28T09:46:28;100581.44;;;7.21;100.00
30598;BME280;17365;48.878;8.334;2024-02-28T09:48:54;100579.34;;;7.81;100.00
30598;BME280;17365;48.878;8.334;2024-02-28T09:51:21;100582.72;;;7.80;100.00
30598;BME280;17365;48.878;8.334;2024-02-28T09:53:46;100579.13;;;7.71;100.00
30598;BME280;17365;48.878;8.334;2024-02-28T09:56:12;100578.00;;;8.02;100.00
30598;BME280;17365;48.878;8.334;2024-02-28T09:58:38;100586.63;;;8.02;100.00
30598;BME280;17365;48.878;8.334;2024-02-28T10:01:04;100584.84;;;7.98;100.00
30598;BME280;17365;48.878;8.334;2024-02-28T10:03:29;100591.53;;;8.34;100.00
30598;BME280;17365;48.878;8.334;2024-02-28T10:05:55;100589.19;;;8.44;100.00
30598;BME280;17365;48.878;8.334;2024-02-28T10:08:20;100581.63;;;8.57;100.00
30598;BME280;17365;48.878;8.334;2024-02-28T10:10:49;100589.75;;;8.30;100.00
30598;BME280;17365;48.878;8.334;2024-02-28T10:13:19;100591.72;;;8.41;100.00
30598;BME280;17365;48.878;8.334;2024-02-28T10:15:44;100592.91;;;8.15;100.00
30598;BME280;17365;48.878;8.334;2024-02-28T10:18:10;100583.75;;;8.32;100.00
30598;BME280;17365;48.878;8.334;2024-02-28T10:20:35;100589.97;;;8.39;100.00
30598;BME280;17365;48.878;8.334;2024-02-28T10:23:07;100603.91;;;8.49;100.00
30598;BME280;17365;48.878;8.334;2024-02-28T10:25:47;100613.50;;;8.54;100.00
30598;BME280;17365;48.878;8.334;2024-02-28T10:28:13;100617.38;;;8.34;100.00
30598;BME280;17365;48.878;8.334;2024-02-28T10:30:43;100625.72;;;8.19;100.00
30598;BME280;17365;48.878;8.334;2024-02-28T10:33:12;100630.16;;;8.71;100.00
30598;BME280;17365;48.878;8.334;2024-02-28T10:35:41;100632.97;;;8.35;100.00
30598;BME280;17365;48.878;8.334;2024-02-28T10:38:09;100630.34;;;8.82;100.00
30598;BME280;17365;48.878;8.334;2024-02-28T10:40:35;100627.88;;;8.87;100.00
30598;BME280;17365;48.878;8.334;2024-02-28T10:43:00;100627.56;;;9.21;100.00
30598;BME280;17365;48.878;8.334;2024-02-28T10:45:29;100626.38;;;9.58;100.00
30598;BME280;17365;48.878;8.334;2024-02-28T10:47:56;100634.00;;;9.48;100.00
30598;BME280;17365;48.878;8.334;2024-02-28T10:50:22;100629.69;;;9.48;100.00
30598;BME280;17365;48.878;8.334;2024-02-28T10:52:48;100632.78;;;9.24;100.00
30598;BME280;17365;48.878;8.334;2024-02-28T10:55:20;100632.41;;;9.57;100.00
30598;BME280;17365;48.878;8.334;2024-02-28T10:58:02;100636.88;;;9.68;100.00
30598;BME280;17365;48.878;8.334;2024-02-28T11:00:29;100641.66;;;8.86;100.00
30598;BME280;17365;48.878;8.334;2024-02-28T11:02:56;100630.63;;;9.53;100.00
30598;BME280;17365;48.878;8.334;2024-02-28T11:05:24;100633.25;;;9.55;100.00
30598;BME280;17365;48.878;8.334;2024-02-28T11:07:59;100628.91;;;9.52;100.00
30598;BME280;17365;48.878;8.334;2024-02-28T11:10:31;100619.94;;;9.30;100.00
30598;BME280;17365;48.878;8.334;2024-02-28T11:12:57;100622.00;;;9.54;100.00
30598;BME280;17365;48.878;8.334;2024-02-28T11:15:25;100628.09;;;9.56;100.00
30598;BME280;17365;48.878;8.334;2024-02-28T11:17:52;100629.00;;;9.05;100.00
30598;BME280;17365;48.878;8.334;2024-02-28T11:20:18;100633.84;;;9.39;100.00
30598;BME280;17365;48.878;8.334;2024-02-28T11:22:43;100634.00;;;9.48;100.00
30598;BME280;17365;48.878;8.334;2024-02-28T11:25:09;100636.31;;;9.29;100.00
30598;BME280;17365;48.878;8.334;2024-02-28T11:27:45;100640.50;;;9.21;100.00
30598;BME280;17365;48.878;8.334;2024-02-28T11:30:11;100634.47;;;9.22;100.00
30598;BME280;17365;48.878;8.334;2024-02-28T11:32:36;100647.53;;;8.77;100.00
30598;BME280;17365;48.878;8.334;2024-02-28T11:35:02;100649.31;;;8.81;100.00
30598;BME280;17365;48.878;8.334;2024-02-28T11:37:28;100639.38;;;9.05;100.00
30598;BME280;17365;48.878;8.334;2024-02-28T11:39:54;100631.84;;;9.78;100.00
30598;BME280;17365;48.878;8.334;2024-02-28T11:42:19;100627.44;;;9.73;100.00
30598;BME280;17365;48.878;8.334;2024-02-28T11:44:53;100633.41;;;9.66;100.00
30598;BME280;17365;48.878;8.334;2024-02-28T11:47:19;100634.00;;;9.49;100.00
30598;BME280;17365;48.878;8.334;2024-02-28T11:49:44;100637.31;;;10.03;100.00
30598;BME280;17365;48.878;8.334;2024-02-28T11:52:10;100623.38;;;9.93;99.46
30598;BME280;17365;48.878;8.334;2024-02-28T11:54:36;100634.22;;;9.63;97.87
30598;BME280;17365;48.878;8.334;2024-02-28T11:57:01;100627.47;;;9.74;100.00
30598;BME280;17365;48.878;8.334;2024-02-28T11:59:26;100638.41;;;9.55;100.00
30598;BME280;17365;48.878;8.334;2024-02-28T12:01:52;100630.97;;;9.79;99.21
30598;BME280;17365;48.878;8.334;2024-02-28T12:04:17;100624.09;;;9.80;96.98
30598;BME280;17365;48.878;8.334;2024-02-28T12:06:42;100632.91;;;9.96;98.26
30598;BME280;17365;48.878;8.334;2024-02-28T12:09:10;100623.69;;;10.19;95.98
30598;BME280;17365;48.878;8.334;2024-02-28T12:11:37;100616.28;;;9.78;98.31
30598;BME280;17365;48.878;8.334;2024-02-28T12:14:09;100609.03;;;10.19;97.89
30598;BME280;17365;48.878;8.334;2024-02-28T12:16:39;100611.81;;;10.33;95.23
30598;BME280;17365;48.878;8.334;2024-02-28T12:19:08;100609.41;;;9.80;95.49
30598;BME280;17365;48.878;8.334;2024-02-28T12:21:35;100610.28;;;9.82;97.98
30598;BME280;17365;48.878;8.334;2024-02-28T12:24:01;100608.38;;;10.39;95.46
30598;BME280;17365;48.878;8.334;2024-02-28T12:26:27;100606.81;;;9.80;97.88
30598;BME280;17365;48.878;8.334;2024-02-28T12:28:52;100608.63;;;9.86;96.44
30598;BME280;17365;48.878;8.334;2024-02-28T12:31:17;100604.22;;;9.79;97.70
30598;BME280;17365;48.878;8.334;2024-02-28T12:33:44;100596.75;;;10.06;98.37
30598;BME280;17365;48.878;8.334;2024-02-28T12:36:09;100593.16;;;9.93;97.71
30598;BME280;17365;48.878;8.334;2024-02-28T12:38:34;100592.66;;;10.22;97.29
30598;BME280;17365;48.878;8.334;2024-02-28T12:40:59;100578.69;;;10.12;96.53
30598;BME280;17365;48.878;8.334;2024-02-28T12:43:25;100580.63;;;10.30;95.93